createdAt,value
2023-01-27T00:00:49.843Z,79.60
2023-01-27T00:03:16.498Z,79.49
2023-01-27T00:05:43.277Z,79.31
2023-01-27T00:08:10.243Z,79.18
2023-01-27T00:10:37.100Z,79.27
2023-01-27T00:13:22.666Z,79.59
2023-01-27T00:15:49.411Z,79.45
2023-01-27T00:18:16.266Z,79.33
2023-01-27T00:21:01.631Z,79.16
2023-01-27T00:23:47.039Z,79.48
2023-01-27T00:26:16.387Z,79.24
2023-01-27T00:28:44.799Z,79.49
2023-01-27T00:31:32.514Z,79.16
2023-01-27T00:34:08.995Z,79.00
2023-01-27T00:36:41.331Z,79.18
2023-01-27T00:39:10.431Z,79.10
2023-01-27T00:41:37.407Z,79.19
2023-01-27T00:44:05.903Z,79.49
2023-01-27T00:46:33.335Z,79.16
2023-01-27T00:49:00.346Z,79.19
2023-01-27T00:51:27.040Z,79.03
2023-01-27T00:53:53.880Z,79.34
2023-01-27T00:56:20.705Z,79.31
2023-01-27T00:58:47.551Z,78.87
2023-01-27T01:01:17.021Z,79.09
2023-01-27T01:03:44.758Z,78.75
2023-01-27T01:06:14.360Z,78.69
2023-01-27T01:08:43.069Z,79.08
2023-01-27T01:11:13.570Z,79.18
2023-01-27T01:13:42.143Z,79.08
2023-01-27T01:16:17.723Z,78.87
2023-01-27T01:18:44.899Z,79.20
2023-01-27T01:21:12.572Z,79.17
2023-01-27T01:23:41.352Z,78.67
2023-01-27T01:26:10.645Z,78.66
2023-01-27T01:28:37.427Z,79.20
2023-01-27T01:31:08.761Z,78.99
2023-01-27T01:33:36.350Z,78.63
2023-01-27T01:36:07.559Z,78.63
2023-01-27T01:38:34.257Z,78.77
2023-01-27T01:41:01.089Z,78.54
2023-01-27T01:43:27.967Z,78.55
2023-01-27T01:45:57.552Z,78.14
2023-01-27T01:48:59.750Z,77.96
2023-01-27T01:51:31.907Z,77.90
2023-01-27T01:54:01.913Z,77.94
2023-01-27T01:56:52.380Z,77.63
2023-01-27T01:59:25.697Z,77.58
2023-01-27T02:01:55.437Z,77.43
2023-01-27T02:04:26.457Z,77.67
2023-01-27T02:07:02.060Z,77.12
2023-01-27T02:09:29.687Z,77.09
2023-01-27T02:11:58.431Z,77.05
2023-01-27T02:14:25.701Z,77.17
2023-01-27T02:16:53.044Z,76.98
2023-01-27T02:19:44.131Z,76.64
2023-01-27T02:22:19.158Z,76.38
2023-01-27T02:24:52.016Z,76.18
2023-01-27T02:27:18.752Z,76.04
2023-01-27T02:29:45.421Z,75.71
2023-01-27T02:32:27.430Z,75.53
2023-01-27T02:34:56.814Z,75.57
2023-01-27T02:37:24.706Z,75.69
2023-01-27T02:39:53.409Z,75.73
2023-01-27T02:42:20.465Z,75.63
2023-01-27T02:44:47.226Z,75.28
2023-01-27T02:47:14.051Z,75.25
2023-01-27T02:49:40.925Z,75.10
2023-01-27T02:52:07.665Z,75.08
2023-01-27T02:54:34.387Z,75.00
2023-01-27T02:57:01.175Z,74.83
2023-01-27T02:59:27.805Z,74.97
2023-01-27T03:01:54.588Z,74.80
2023-01-27T03:04:21.373Z,74.79
2023-01-27T03:06:48.018Z,74.57
2023-01-27T03:09:14.926Z,74.05
2023-01-27T03:11:59.948Z,73.76
2023-01-27T03:14:45.080Z,74.14
2023-01-27T03:17:30.530Z,74.20
2023-01-27T03:19:57.122Z,73.70
2023-01-27T03:22:23.807Z,73.98
2023-01-27T03:24:50.555Z,73.69
2023-01-27T03:27:18.060Z,73.40
2023-01-27T03:29:56.743Z,73.59
2023-01-27T03:32:28.690Z,73.46
2023-01-27T03:35:00.535Z,73.68
2023-01-27T03:37:47.105Z,73.30
2023-01-27T03:40:33.256Z,72.76
2023-01-27T03:43:18.991Z,72.76
2023-01-27T03:46:08.546Z,72.22
2023-01-27T03:48:35.933Z,72.73
2023-01-27T03:51:05.332Z,72.39
2023-01-27T03:53:32.029Z,72.36
2023-01-27T03:55:59.125Z,72.22
2023-01-27T03:58:28.113Z,72.52
2023-01-27T04:01:01.617Z,72.66
2023-01-27T04:03:49.900Z,72.55
2023-01-27T04:06:38.445Z,72.27
2023-01-27T04:09:06.677Z,72.39
2023-01-27T04:11:52.103Z,72.48
2023-01-27T04:14:19.382Z,72.62
2023-01-27T04:16:47.342Z,72.67
2023-01-27T04:19:14.470Z,72.51
2023-01-27T04:21:41.367Z,72.30
2023-01-27T04:24:16.789Z,71.97
2023-01-27T04:26:45.190Z,71.80
2023-01-27T04:29:13.738Z,71.81
2023-01-27T04:31:41.290Z,72.26
2023-01-27T04:34:08.758Z,72.12
2023-01-27T04:36:35.543Z,71.92
2023-01-27T04:39:02.367Z,71.89
2023-01-27T04:41:29.299Z,72.01
2023-01-27T04:43:56.018Z,71.58
2023-01-27T04:46:22.854Z,71.53
2023-01-27T04:48:49.831Z,71.87
2023-01-27T04:51:16.863Z,71.43
2023-01-27T04:53:44.033Z,71.51
2023-01-27T04:56:24.715Z,71.47
2023-01-27T04:58:51.413Z,71.52
2023-01-27T05:01:18.381Z,71.13
2023-01-27T05:03:45.271Z,71.35
2023-01-27T05:06:12.959Z,71.46
2023-01-27T05:08:39.782Z,71.00
2023-01-27T05:11:06.804Z,71.13
2023-01-27T05:13:33.957Z,71.23
2023-01-27T05:16:09.003Z,71.34
2023-01-27T05:18:36.677Z,71.55
2023-01-27T05:21:04.644Z,71.49
2023-01-27T05:23:37.919Z,71.10
2023-01-27T05:26:10.611Z,71.18
2023-01-27T05:28:38.580Z,71.50
2023-01-27T05:31:12.217Z,71.28
2023-01-27T05:33:40.675Z,71.23
2023-01-27T05:36:09.322Z,71.45
2023-01-27T05:38:36.032Z,71.28
2023-01-27T05:41:06.081Z,71.26
2023-01-27T05:43:34.911Z,71.46
2023-01-27T05:46:16.462Z,71.34
2023-01-27T05:48:46.330Z,71.09
2023-01-27T05:51:15.266Z,71.28
2023-01-27T05:53:43.767Z,71.14
2023-01-27T05:56:13.325Z,71.41
2023-01-27T05:58:40.442Z,71.53
2023-01-27T06:01:13.865Z,71.72
2023-01-27T06:03:41.353Z,71.66
2023-01-27T06:06:10.100Z,71.78
2023-01-27T06:08:37.663Z,71.57
2023-01-27T06:11:05.296Z,71.47
2023-01-27T06:13:35.690Z,71.57
2023-01-27T06:16:03.986Z,71.81
2023-01-27T06:18:31.090Z,71.94
2023-01-27T06:21:02.368Z,72.25
2023-01-27T06:23:29.531Z,71.77
2023-01-27T06:25:57.455Z,71.97
2023-01-27T06:28:29.271Z,71.81
2023-01-27T06:31:04.560Z,72.37
2023-01-27T06:33:31.308Z,72.28
2023-01-27T06:36:08.037Z,72.05
2023-01-27T06:38:35.151Z,72.24
2023-01-27T06:41:02.336Z,72.09
2023-01-27T06:43:29.513Z,72.54
2023-01-27T06:45:59.537Z,72.50
2023-01-27T06:48:27.301Z,72.35
2023-01-27T06:50:55.234Z,72.59
2023-01-27T06:53:22.973Z,72.49
2023-01-27T06:55:55.922Z,72.73
2023-01-27T06:58:22.917Z,72.42
2023-01-27T07:00:49.663Z,72.79
2023-01-27T07:05:42.324Z,72.79
2023-01-27T07:08:09.556Z,72.90
2023-01-27T07:10:36.654Z,73.20
2023-01-27T07:13:14.214Z,73.08
2023-01-27T07:15:41.346Z,73.67
2023-01-27T07:18:09.731Z,73.80
2023-01-27T07:20:36.544Z,73.59
2023-01-27T07:23:05.382Z,73.34
2023-01-27T07:25:34.592Z,73.59
2023-01-27T07:28:02.489Z,74.14
2023-01-27T07:30:30.028Z,73.99
2023-01-27T07:33:03.509Z,74.28
2023-01-27T07:35:30.238Z,74.27
2023-01-27T07:37:57.947Z,74.53
2023-01-27T07:40:25.073Z,74.04
2023-01-27T07:42:52.051Z,74.41
2023-01-27T07:45:18.757Z,74.25
2023-01-27T07:47:45.567Z,74.41
2023-01-27T07:50:12.867Z,74.65
2023-01-27T07:52:39.816Z,74.69
2023-01-27T07:55:06.943Z,75.36
2023-01-27T07:57:33.909Z,74.65
2023-01-27T08:00:00.675Z,74.83
2023-01-27T08:02:28.517Z,75.22
2023-01-27T08:04:55.317Z,75.14
2023-01-27T08:07:22.987Z,74.54
2023-01-27T08:09:49.852Z,75.18
2023-01-27T08:12:16.815Z,75.51
2023-01-27T08:14:43.836Z,75.44
2023-01-27T08:17:10.824Z,75.76
2023-01-27T08:19:37.710Z,75.63
2023-01-27T08:22:04.401Z,75.97
2023-01-27T08:24:31.301Z,75.93
2023-01-27T08:26:58.142Z,76.76
2023-01-27T08:29:25.009Z,76.30
2023-01-27T08:31:52.203Z,76.57
2023-01-27T08:34:19.363Z,76.58
2023-01-27T08:36:46.165Z,76.73
2023-01-27T08:39:13.687Z,77.53
2023-01-27T08:41:40.388Z,77.28
2023-01-27T08:44:07.653Z,77.24
2023-01-27T08:46:34.893Z,77.18
2023-01-27T08:49:02.219Z,77.04
2023-01-27T08:51:28.989Z,77.29
2023-01-27T08:53:55.940Z,77.13
2023-01-27T08:56:23.668Z,76.58
2023-01-27T08:58:52.434Z,76.91
2023-01-27T09:01:20.958Z,77.04
2023-01-27T09:03:48.571Z,76.75
2023-01-27T09:06:16.164Z,77.29
2023-01-27T09:08:44.444Z,76.88
2023-01-27T09:11:13.764Z,76.93
2023-01-27T09:13:40.939Z,76.94
2023-01-27T09:16:08.738Z,76.88
2023-01-27T09:18:35.995Z,77.08
2023-01-27T09:21:05.053Z,77.23
2023-01-27T09:23:32.498Z,77.04
2023-01-27T09:25:59.348Z,76.90
2023-01-27T09:28:26.128Z,76.92
2023-01-27T09:30:58.498Z,76.82
2023-01-27T09:33:28.883Z,76.70
2023-01-27T09:36:01.236Z,76.96
2023-01-27T09:38:33.350Z,77.15
2023-01-27T09:41:03.283Z,76.97
2023-01-27T09:44:04.620Z,76.99
2023-01-27T09:46:57.825Z,76.82
2023-01-27T09:49:58.352Z,76.96
2023-01-27T09:52:47.655Z,76.64
2023-01-27T09:55:50.845Z,76.69
2023-01-27T09:58:34.632Z,76.55
2023-01-27T10:01:01.639Z,76.35
2023-01-27T10:04:07.250Z,76.41
2023-01-27T10:06:53.740Z,76.47
2023-01-27T10:09:51.125Z,76.12
2023-01-27T10:12:30.832Z,76.06
2023-01-27T10:15:12.114Z,75.65
2023-01-27T10:17:47.825Z,75.11
2023-01-27T10:20:20.953Z,75.81
2023-01-27T10:22:50.659Z,74.89
2023-01-27T10:25:26.532Z,74.97
2023-01-27T10:27:58.984Z,75.14
2023-01-27T10:30:36.064Z,74.91
2023-01-27T10:33:25.222Z,74.09
2023-01-27T10:35:58.417Z,74.82
2023-01-27T10:38:54.139Z,74.67
2023-01-27T10:41:24.074Z,74.17
2023-01-27T10:44:12.485Z,73.70
2023-01-27T10:46:58.334Z,74.12
2023-01-27T10:49:57.623Z,73.26
2023-01-27T10:52:29.813Z,73.74
2023-01-27T10:55:14.136Z,72.64
2023-01-27T10:58:04.904Z,72.41
2023-01-27T11:03:26.464Z,72.77
2023-01-27T11:05:57.902Z,72.88
2023-01-27T11:08:34.348Z,72.89
2023-01-27T11:11:24.317Z,72.38
2023-01-27T11:14:02.458Z,71.95
2023-01-27T11:16:35.697Z,72.48
2023-01-27T11:19:14.606Z,72.82
2023-01-27T11:21:41.736Z,72.82
2023-01-27T11:24:23.655Z,72.14
2023-01-27T11:27:00.581Z,72.33
2023-01-27T11:29:42.961Z,72.40
2023-01-27T11:32:36.734Z,71.44
2023-01-27T11:35:15.862Z,72.03
2023-01-27T11:37:49.197Z,71.37
2023-01-27T11:40:29.846Z,71.26
2023-01-27T11:43:00.806Z,71.18
2023-01-27T11:45:32.697Z,71.45
2023-01-27T11:48:02.287Z,71.66
2023-01-27T11:50:34.345Z,71.70
2023-01-27T11:53:10.529Z,71.12
2023-01-27T11:55:52.518Z,71.01
2023-01-27T11:58:27.722Z,70.97
2023-01-27T12:01:02.295Z,71.01
2023-01-27T12:03:50.851Z,71.11
2023-01-27T12:06:45.002Z,70.75
2023-01-27T12:09:31.615Z,70.51
2023-01-27T12:12:20.699Z,70.13
2023-01-27T12:14:55.744Z,70.97
2023-01-27T12:17:41.197Z,70.70
2023-01-27T12:20:23.575Z,70.63
2023-01-27T12:22:54.615Z,70.74
2023-01-27T12:25:40.046Z,70.73
2023-01-27T12:28:17.240Z,70.69
2023-01-27T12:30:47.177Z,70.78
2023-01-27T12:33:24.508Z,70.65
2023-01-27T12:35:52.645Z,70.36
2023-01-27T12:38:25.073Z,70.31
2023-01-27T12:41:12.684Z,70.77
2023-01-27T12:43:54.842Z,71.10
2023-01-27T12:46:26.709Z,70.78
2023-01-27T12:49:02.945Z,70.91
2023-01-27T12:51:42.227Z,70.83
2023-01-27T12:54:35.712Z,70.76
2023-01-27T12:57:05.715Z,70.80
2023-01-27T12:59:34.067Z,70.89
2023-01-27T13:02:21.277Z,70.57
2023-01-27T13:04:53.548Z,71.05
2023-01-27T13:07:25.304Z,70.60
2023-01-27T13:10:02.181Z,70.51
2023-01-27T13:12:56.800Z,71.04
2023-01-27T13:15:31.675Z,70.88
2023-01-27T13:18:00.159Z,70.61
2023-01-27T13:20:42.004Z,70.79
2023-01-27T13:23:21.340Z,71.36
2023-01-27T13:26:07.061Z,71.15
2023-01-27T13:29:00.264Z,71.15
2023-01-27T13:31:43.436Z,71.18
2023-01-27T13:34:23.533Z,71.20
2023-01-27T13:37:08.939Z,70.53
2023-01-27T13:40:10.456Z,70.69
2023-01-27T13:42:45.130Z,70.84
2023-01-27T13:45:16.725Z,70.91
2023-01-27T13:48:02.243Z,71.22
2023-01-27T13:50:42.254Z,71.12
2023-01-27T13:53:13.854Z,70.99
2023-01-27T13:56:08.817Z,71.32
2023-01-27T13:59:11.351Z,71.30
2023-01-27T14:02:00.002Z,71.42
2023-01-27T14:04:45.633Z,71.29
2023-01-27T14:07:29.464Z,71.54
2023-01-27T14:10:24.528Z,71.21
2023-01-27T14:13:03.892Z,71.49
2023-01-27T14:15:40.003Z,71.18
2023-01-27T14:18:24.912Z,71.32
2023-01-27T14:21:13.525Z,71.57
2023-01-27T14:24:01.961Z,71.43
2023-01-27T14:26:44.068Z,71.58
2023-01-27T14:29:43.012Z,71.41
2023-01-27T14:32:14.754Z,71.37
2023-01-27T14:35:26.087Z,71.68
2023-01-27T14:38:11.664Z,71.95
2023-01-27T14:40:51.884Z,71.50
2023-01-27T14:44:04.285Z,71.78
2023-01-27T14:46:57.610Z,71.92
2023-01-27T14:49:47.378Z,71.99
2023-01-27T14:52:27.604Z,71.74
2023-01-27T14:54:57.273Z,71.51
2023-01-27T14:57:45.802Z,71.78
2023-01-27T15:00:27.574Z,71.64
2023-01-27T15:03:03.415Z,71.76
2023-01-27T15:05:56.112Z,71.70
2023-01-27T15:08:22.794Z,71.46
2023-01-27T15:11:04.729Z,71.55
2023-01-27T15:13:55.784Z,72.10
2023-01-27T15:16:28.372Z,72.06
2023-01-27T15:19:11.328Z,72.10
2023-01-27T15:21:43.417Z,71.87
2023-01-27T15:24:28.376Z,72.20
2023-01-27T15:26:55.599Z,72.21
2023-01-27T15:29:27.735Z,71.84
2023-01-27T15:32:26.345Z,72.08
2023-01-27T15:35:14.756Z,71.93
2023-01-27T15:37:58.139Z,72.01
2023-01-27T15:40:26.950Z,72.12
2023-01-27T15:43:00.681Z,71.61
2023-01-27T15:45:31.883Z,71.76
2023-01-27T15:48:13.718Z,71.82
2023-01-27T15:51:03.313Z,71.83
2023-01-27T15:53:34.809Z,71.71
2023-01-27T15:56:03.621Z,71.54
2023-01-27T15:58:35.855Z,71.90
2023-01-27T16:01:07.322Z,71.58
2023-01-27T16:03:46.219Z,71.56
2023-01-27T16:06:18.175Z,71.50
2023-01-27T16:08:48.579Z,71.38
2023-01-27T16:11:39.713Z,71.88
2023-01-27T16:14:12.760Z,71.79
2023-01-27T16:16:40.305Z,71.59
2023-01-27T16:19:10.879Z,71.97
2023-01-27T16:21:53.684Z,71.79
2023-01-27T16:24:25.376Z,71.66
2023-01-27T16:27:04.369Z,71.69
2023-01-27T16:29:38.634Z,72.03
2023-01-27T16:32:20.840Z,71.47
2023-01-27T16:34:53.310Z,71.66
2023-01-27T16:37:30.092Z,71.60
2023-01-27T16:40:02.050Z,71.32
2023-01-27T16:42:32.760Z,71.47
2023-01-27T16:45:04.339Z,71.30
2023-01-27T16:47:53.009Z,71.38
2023-01-27T16:50:40.265Z,71.71
2023-01-27T16:53:19.941Z,71.73
2023-01-27T16:55:57.035Z,71.33
2023-01-27T16:58:32.457Z,71.51
2023-01-27T17:01:03.165Z,70.87
2023-01-27T17:03:37.904Z,71.26
2023-01-27T17:06:08.949Z,71.34
2023-01-27T17:08:43.932Z,71.40
2023-01-27T17:11:22.389Z,71.19
2023-01-27T17:14:28.697Z,70.71
2023-01-27T17:16:59.064Z,71.24
2023-01-27T17:19:36.675Z,70.95
2023-01-27T17:22:11.963Z,70.97
2023-01-27T17:24:49.038Z,70.68
2023-01-27T17:27:34.421Z,71.27
2023-01-27T17:30:06.706Z,71.02
2023-01-27T17:32:39.533Z,70.60
2023-01-27T17:35:22.565Z,71.22
2023-01-27T17:37:49.391Z,70.86
2023-01-27T17:40:19.578Z,71.29
2023-01-27T17:42:46.840Z,71.29
2023-01-27T17:45:27.433Z,71.20
2023-01-27T17:47:57.796Z,70.97
2023-01-27T17:50:28.134Z,71.20
2023-01-27T17:52:57.169Z,70.92
2023-01-27T17:55:26.033Z,70.90
2023-01-27T17:58:07.267Z,70.82
2023-01-27T18:00:40.327Z,71.04
2023-01-27T18:03:14.399Z,71.11
2023-01-27T18:05:44.414Z,71.18
2023-01-27T18:08:11.820Z,71.20
2023-01-27T18:10:44.289Z,71.41
2023-01-27T18:13:20.179Z,71.41
2023-01-27T18:15:50.952Z,71.53
2023-01-27T18:18:24.655Z,71.26
2023-01-27T18:21:16.624Z,71.37
2023-01-27T18:23:49.531Z,71.42
2023-01-27T18:26:24.799Z,71.23
2023-01-27T18:29:05.546Z,70.79
2023-01-27T18:31:44.261Z,71.42
2023-01-27T18:34:30.814Z,70.84
2023-01-27T18:37:03.751Z,70.78
2023-01-27T18:39:41.242Z,70.93
2023-01-27T18:42:19.617Z,70.96
2023-01-27T18:44:49.665Z,71.01
2023-01-27T18:47:25.339Z,70.66
2023-01-27T18:50:07.308Z,70.92
2023-01-27T18:52:34.019Z,71.13
2023-01-27T18:55:20.368Z,70.73
2023-01-27T18:57:50.067Z,71.07
2023-01-27T19:00:23.647Z,70.64
2023-01-27T19:02:53.516Z,71.01
2023-01-27T19:05:27.285Z,70.99
2023-01-27T19:07:54.129Z,70.93
2023-01-27T19:10:28.448Z,70.83
2023-01-27T19:12:58.552Z,70.86
2023-01-27T19:15:27.751Z,70.32
2023-01-27T19:17:57.127Z,70.08
2023-01-27T19:20:27.328Z,70.38
2023-01-27T19:22:55.343Z,70.55
2023-01-27T19:25:23.856Z,70.36
2023-01-27T19:27:54.695Z,70.11
2023-01-27T19:30:28.544Z,70.54
2023-01-27T19:32:56.249Z,70.20
2023-01-27T19:35:25.641Z,70.72
2023-01-27T19:37:55.574Z,70.59
2023-01-27T19:40:22.295Z,70.53
2023-01-27T19:42:49.274Z,70.39
2023-01-27T19:45:17.943Z,69.87
2023-01-27T19:47:47.252Z,70.11
2023-01-27T19:50:26.581Z,70.01
2023-01-27T19:52:53.292Z,69.78
2023-01-27T19:55:21.019Z,69.61
2023-01-27T19:57:48.925Z,69.63
2023-01-27T20:00:21.319Z,69.67
2023-01-27T20:02:48.373Z,69.12
2023-01-27T20:05:15.691Z,69.35
2023-01-27T20:07:43.989Z,69.19
2023-01-27T20:10:20.450Z,69.29
2023-01-27T20:13:07.363Z,68.67
2023-01-27T20:15:41.158Z,69.36
2023-01-27T20:18:09.559Z,69.08
2023-01-27T20:20:36.389Z,69.36
2023-01-27T20:23:03.393Z,69.32
2023-01-27T20:25:30.847Z,68.92
2023-01-27T20:27:59.920Z,69.35
2023-01-27T20:30:33.275Z,69.40
2023-01-27T20:33:02.305Z,69.46
2023-01-27T20:35:29.560Z,69.52
2023-01-27T20:37:56.392Z,69.19
2023-01-27T20:40:26.409Z,69.37
2023-01-27T20:42:53.612Z,69.00
2023-01-27T20:45:21.439Z,69.24
2023-01-27T20:47:50.425Z,69.30
2023-01-27T20:50:17.929Z,69.28
2023-01-27T20:52:45.463Z,69.03
2023-01-27T20:55:14.238Z,69.11
2023-01-27T20:57:41.293Z,69.12
2023-01-27T21:00:10.763Z,69.01
2023-01-27T21:02:37.449Z,68.56
2023-01-27T21:05:04.762Z,68.57
2023-01-27T21:07:32.304Z,68.49
2023-01-27T21:09:59.278Z,68.72
2023-01-27T21:12:27.398Z,68.60
2023-01-27T21:14:54.188Z,68.54
2023-01-27T21:17:21.021Z,68.66
2023-01-27T21:19:47.916Z,68.23
2023-01-27T21:22:14.721Z,69.07
2023-01-27T21:24:42.972Z,68.62
2023-01-27T21:27:09.881Z,68.66
2023-01-27T21:29:36.882Z,68.65
2023-01-27T21:32:09.569Z,68.67
2023-01-27T21:34:36.529Z,68.66
2023-01-27T21:37:03.819Z,68.34
2023-01-27T21:39:30.615Z,68.55
2023-01-27T21:41:57.355Z,68.46
2023-01-27T21:44:43.690Z,68.63
2023-01-27T21:47:13.574Z,68.15
2023-01-27T21:50:01.128Z,68.17
2023-01-27T21:52:39.911Z,68.53
2023-01-27T21:55:18.320Z,68.10
2023-01-27T21:57:46.004Z,68.44
2023-01-27T22:00:15.072Z,68.51
2023-01-27T22:02:42.754Z,68.52
2023-01-27T22:05:11.353Z,68.13
2023-01-27T22:07:38.519Z,68.25
2023-01-27T22:10:13.487Z,68.42
2023-01-27T22:12:40.252Z,68.03
2023-01-27T22:15:07.782Z,68.08
2023-01-27T22:17:35.232Z,68.17
2023-01-27T22:20:02.776Z,68.45
2023-01-27T22:22:29.486Z,68.34
2023-01-27T22:24:56.252Z,68.46
2023-01-27T22:27:23.018Z,68.15
2023-01-27T22:29:49.918Z,67.97
2023-01-27T22:32:16.747Z,68.17
2023-01-27T22:34:44.519Z,68.36
2023-01-27T22:37:11.188Z,68.19
2023-01-27T22:39:38.363Z,68.04
2023-01-27T22:42:05.216Z,67.95
2023-01-27T22:44:31.893Z,68.33
2023-01-27T22:46:58.602Z,68.28
2023-01-27T22:49:25.347Z,67.90
2023-01-27T22:51:52.031Z,67.62
2023-01-27T22:54:19.087Z,67.68
2023-01-27T22:56:46.018Z,68.05
2023-01-27T22:59:13.327Z,67.95
2023-01-27T23:01:40.516Z,67.93
2023-01-27T23:04:07.298Z,67.56
2023-01-27T23:06:34.218Z,67.84
2023-01-27T23:09:00.884Z,67.86
2023-01-27T23:11:27.659Z,67.88
2023-01-27T23:13:54.571Z,67.68
2023-01-27T23:16:23.186Z,67.79
2023-01-27T23:18:50.322Z,67.77
2023-01-27T23:21:17.093Z,67.94
2023-01-27T23:23:44.223Z,67.60
2023-01-27T23:26:11.465Z,67.59
2023-01-27T23:28:39.254Z,67.88
2023-01-27T23:31:10.752Z,67.91
2023-01-27T23:33:39.417Z,67.52
2023-01-27T23:36:08.245Z,67.68
2023-01-27T23:38:36.279Z,67.64
2023-01-27T23:41:18.557Z,67.72
2023-01-27T23:43:50.869Z,67.98
2023-01-27T23:46:17.802Z,68.16
2023-01-27T23:48:48.508Z,67.78
2023-01-27T23:51:15.374Z,67.97
2023-01-27T23:53:42.458Z,67.78
2023-01-27T23:56:12.671Z,67.77
2023-01-27T23:58:40.110Z,67.90
